createdAt,value
2022-11-05T00:05:11.990Z,100181.53
2022-11-05T00:10:21.988Z,100189.75
2022-11-05T00:15:41.769Z,100193.00
2022-11-05T00:20:43.258Z,100197.28
2022-11-05T00:25:53.958Z,100196.31
2022-11-05T00:31:01.160Z,100194.53
2022-11-05T00:36:03.635Z,100193.66
2022-11-05T00:41:05.307Z,100195.41
2022-11-05T00:46:06.829Z,100206.53
2022-11-05T00:51:08.469Z,100200.81
2022-11-05T00:56:10.092Z,100208.44
2022-11-05T01:01:12.005Z,100214.41
2022-11-05T01:06:16.032Z,100215.97
2022-11-05T01:11:35.241Z,100222.81
2022-11-05T01:16:38.349Z,100233.91
2022-11-05T01:21:39.874Z,100224.41
2022-11-05T01:26:41.355Z,100231.03
2022-11-05T01:31:42.838Z,100238.78
2022-11-05T01:36:44.474Z,100235.25
2022-11-05T01:41:46.762Z,100247.06
2022-11-05T01:46:48.293Z,100245.31
2022-11-05T01:51:51.364Z,100244.38
2022-11-05T01:56:59.916Z,100248.38
2022-11-05T02:02:03.453Z,100260.03
2022-11-05T02:07:07.246Z,100263.22
2022-11-05T02:12:10.644Z,100268.19
2022-11-05T02:17:36.526Z,100269.03
2022-11-05T02:22:53.199Z,100267.31
2022-11-05T02:28:05.771Z,100272.34
2022-11-05T02:33:36.084Z,100274.06
2022-11-05T02:38:46.050Z,100279.19
2022-11-05T02:44:02.710Z,100288.63
2022-11-05T02:49:17.226Z,100293.72
2022-11-05T02:54:26.914Z,100287.00
2022-11-05T02:59:28.637Z,100297.16
2022-11-05T03:04:32.142Z,100296.16
2022-11-05T03:09:51.836Z,100300.38
2022-11-05T03:14:59.424Z,100311.19
2022-11-05T03:20:40.004Z,100313.75
2022-11-05T03:25:47.702Z,100319.72
2022-11-05T03:30:52.409Z,100327.34
2022-11-05T03:36:00.458Z,100335.88
2022-11-05T03:41:07.453Z,100332.53
2022-11-05T03:46:31.951Z,100339.44
2022-11-05T03:51:43.113Z,100340.31
2022-11-05T03:57:05.610Z,100358.31
2022-11-05T04:02:07.330Z,100363.44
2022-11-05T04:07:29.047Z,100366.19
2022-11-05T04:12:49.133Z,100365.97
2022-11-05T04:17:50.715Z,100374.38
2022-11-05T04:23:21.003Z,100382.06
2022-11-05T04:28:42.472Z,100385.44
2022-11-05T04:33:43.957Z,100399.03
2022-11-05T04:38:45.457Z,100393.09
2022-11-05T04:43:46.927Z,100396.56
2022-11-05T04:48:48.505Z,100398.38
2022-11-05T04:53:49.963Z,100397.53
2022-11-05T04:58:51.900Z,100406.00
2022-11-05T05:03:54.552Z,100416.03
2022-11-05T05:08:55.994Z,100421.78
2022-11-05T05:13:57.693Z,100434.69
2022-11-05T05:18:59.154Z,100443.16
2022-11-05T05:24:00.838Z,100449.91
2022-11-05T05:29:03.584Z,100458.41
2022-11-05T05:34:06.583Z,100469.44
2022-11-05T05:39:11.087Z,100473.78
2022-11-05T05:44:12.735Z,100485.75
2022-11-05T05:49:14.422Z,100483.38
2022-11-05T05:54:16.326Z,100492.00
2022-11-05T05:59:17.874Z,100493.81
2022-11-05T06:04:19.404Z,100500.69
2022-11-05T06:09:20.906Z,100504.94
2022-11-05T06:14:22.387Z,100510.91
2022-11-05T06:19:23.938Z,100515.94
2022-11-05T06:24:25.452Z,100532.00
2022-11-05T06:29:26.887Z,100539.63
2022-11-05T06:34:28.413Z,100542.16
2022-11-05T06:39:29.852Z,100563.31
2022-11-05T06:44:31.350Z,100565.84
2022-11-05T06:49:32.831Z,100575.25
2022-11-05T06:54:34.312Z,100578.69
2022-11-05T06:59:37.048Z,100577.81
2022-11-05T07:04:38.543Z,100592.97
2022-11-05T07:09:43.072Z,100601.56
2022-11-05T07:14:44.542Z,100609.06
2022-11-05T07:19:45.953Z,100621.69
2022-11-05T07:24:48.084Z,100625.84
2022-11-05T07:29:49.600Z,100636.03
2022-11-05T07:34:51.119Z,100647.78
2022-11-05T07:39:52.584Z,100640.78
2022-11-05T07:44:54.051Z,100648.91
2022-11-05T07:49:55.535Z,100655.09
2022-11-05T07:54:56.994Z,100653.00
2022-11-05T07:59:58.506Z,100662.91
2022-11-05T08:04:59.979Z,100668.13
2022-11-05T08:10:03.596Z,100676.00
2022-11-05T08:15:05.579Z,100685.31
2022-11-05T08:20:07.415Z,100690.47
2022-11-05T08:25:09.208Z,100696.53
2022-11-05T08:30:11.092Z,100705.09
2022-11-05T08:35:12.559Z,100710.13
2022-11-05T08:40:14.205Z,100717.66
2022-11-05T08:45:15.748Z,100707.47
2022-11-05T08:50:17.568Z,100714.72
2022-11-05T08:55:19.175Z,100713.56
2022-11-05T09:00:20.729Z,100723.97
2022-11-05T09:05:22.285Z,100718.81
2022-11-05T09:10:24.272Z,100723.03
2022-11-05T09:15:25.795Z,100727.06
2022-11-05T09:20:27.453Z,100724.69
2022-11-05T09:25:29.082Z,100728.75
2022-11-05T09:30:30.580Z,100730.63
2022-11-05T09:35:32.119Z,100738.59
2022-11-05T09:40:44.149Z,100739.41
2022-11-05T09:45:48.539Z,100749.28
2022-11-05T09:50:53.281Z,100753.19
2022-11-05T09:55:57.443Z,100758.72
2022-11-05T10:00:59.248Z,100760.56
2022-11-05T10:06:09.252Z,100758.22
2022-11-05T10:11:18.313Z,100763.56
2022-11-05T10:16:39.623Z,100755.25
2022-11-05T10:27:04.335Z,100774.44
2022-11-05T10:32:07.286Z,100780.91
2022-11-05T10:37:10.186Z,100791.00
2022-11-05T10:42:38.386Z,100791.41
2022-11-05T10:48:01.011Z,100792.44
2022-11-05T10:53:15.162Z,100788.66
2022-11-05T10:58:16.585Z,100796.00
2022-11-05T11:03:36.157Z,100788.41
2022-11-05T11:08:38.147Z,100784.50
2022-11-05T11:14:04.427Z,100781.25
2022-11-05T11:19:31.010Z,100769.16
2022-11-05T11:24:45.188Z,100779.19
2022-11-05T11:29:51.135Z,100778.59
2022-11-05T11:34:58.492Z,100765.91
2022-11-05T11:40:29.359Z,100777.41
2022-11-05T11:45:45.542Z,100777.66
2022-11-05T11:50:48.341Z,100778.13
2022-11-05T11:56:18.020Z,100779.84
2022-11-05T12:01:48.709Z,100783.75
2022-11-05T12:07:26.271Z,100792.31
2022-11-05T12:13:01.933Z,100785.84
2022-11-05T12:18:19.389Z,100781.19
2022-11-05T12:23:35.920Z,100778.06
2022-11-05T12:29:20.120Z,100781.00
2022-11-05T12:35:05.395Z,100777.63
2022-11-05T12:40:12.945Z,100784.47
2022-11-05T12:45:43.220Z,100774.31
2022-11-05T12:51:03.702Z,100777.69
2022-11-05T12:56:21.415Z,100776.84
2022-11-05T13:01:33.451Z,100773.31
2022-11-05T13:06:40.974Z,100780.25
2022-11-05T13:11:45.992Z,100775.84
2022-11-05T13:16:59.875Z,100783.19
2022-11-05T13:22:12.373Z,100794.63
2022-11-05T13:27:36.937Z,100792.38
2022-11-05T13:32:47.045Z,100794.00
2022-11-05T13:38:17.620Z,100791.78
2022-11-05T13:43:40.126Z,100787.75
2022-11-05T13:48:50.798Z,100793.22
2022-11-05T13:54:14.123Z,100797.69
2022-11-05T13:59:36.964Z,100791.69
2022-11-05T14:04:47.339Z,100799.06
2022-11-05T14:09:55.826Z,100797.56
2022-11-05T14:15:03.962Z,100791.94
2022-11-05T14:20:05.432Z,100799.78
2022-11-05T14:25:19.210Z,100794.13
2022-11-05T14:30:48.944Z,100796.00
2022-11-05T14:35:51.613Z,100803.06
2022-11-05T14:41:02.457Z,100800.13
2022-11-05T14:46:06.428Z,100804.56
2022-11-05T14:51:44.215Z,100807.50
2022-11-05T14:56:56.507Z,100803.72
2022-11-05T15:02:15.262Z,100799.16
2022-11-05T15:07:22.533Z,100810.44
2022-11-05T15:12:37.333Z,100818.88
2022-11-05T15:17:47.993Z,100824.78
2022-11-05T15:22:51.809Z,100818.00
2022-11-05T15:28:02.969Z,100813.09
2022-11-05T15:33:31.795Z,100806.66
2022-11-05T15:38:35.179Z,100808.59
2022-11-05T15:43:47.732Z,100807.97
2022-11-05T15:49:04.978Z,100814.19
2022-11-05T15:54:29.014Z,100828.09
2022-11-05T15:59:29.676Z,100822.63
2022-11-05T16:04:34.571Z,100820.41
2022-11-05T16:09:40.055Z,100824.94
2022-11-05T16:14:42.329Z,100827.78
2022-11-05T16:19:45.459Z,100835.75
2022-11-05T16:24:47.349Z,100837.75
2022-11-05T16:29:48.762Z,100835.56
2022-11-05T16:34:59.208Z,100835.09
2022-11-05T16:40:01.912Z,100832.84
2022-11-05T16:45:04.315Z,100833.06
2022-11-05T16:50:17.835Z,100849.34
2022-11-05T16:55:19.972Z,100844.50
2022-11-05T17:00:23.016Z,100859.97
2022-11-05T17:05:29.723Z,100856.78
2022-11-05T17:10:31.434Z,100857.00
2022-11-05T17:15:35.684Z,100871.53
2022-11-05T17:20:41.640Z,100864.94
2022-11-05T17:25:45.701Z,100866.88
2022-11-05T17:30:52.942Z,100883.94
2022-11-05T17:35:55.323Z,100890.88
2022-11-05T17:40:56.794Z,100887.69
2022-11-05T17:46:04.122Z,100891.19
2022-11-05T17:51:10.101Z,100905.72
2022-11-05T17:56:13.476Z,100909.25
2022-11-05T18:01:31.774Z,100915.25
2022-11-05T18:06:33.344Z,100924.63
2022-11-05T18:11:36.201Z,100927.28
2022-11-05T18:16:38.095Z,100940.03
2022-11-05T18:21:39.568Z,100933.31
2022-11-05T18:26:42.087Z,100935.91
2022-11-05T18:31:43.734Z,100924.13
2022-11-05T18:36:45.607Z,100911.50
2022-11-05T18:41:47.460Z,100913.19
2022-11-05T18:46:58.170Z,100920.72
2022-11-05T18:52:00.080Z,100916.41
2022-11-05T18:57:01.632Z,100916.38
2022-11-05T19:02:03.413Z,100915.50
2022-11-05T19:07:06.394Z,100912.91
2022-11-05T19:12:08.115Z,100901.81
2022-11-05T19:17:09.648Z,100905.16
2022-11-05T19:22:11.453Z,100896.63
2022-11-05T19:27:12.902Z,100911.84
2022-11-05T19:32:14.619Z,100917.88
2022-11-05T19:37:16.078Z,100931.50
2022-11-05T19:42:17.530Z,100919.78
2022-11-05T19:47:18.953Z,100922.41
2022-11-05T19:52:20.527Z,100925.88
2022-11-05T19:57:22.068Z,100928.59
2022-11-05T20:02:23.614Z,100929.59
2022-11-05T20:07:25.214Z,100927.19
2022-11-05T20:12:26.700Z,100929.81
2022-11-05T20:17:28.264Z,100924.81
2022-11-05T20:22:29.780Z,100925.69
2022-11-05T20:27:31.224Z,100934.13
2022-11-05T20:32:32.728Z,100934.19
2022-11-05T20:37:34.495Z,100933.34
2022-11-05T20:42:36.958Z,100922.41
2022-11-05T20:47:38.587Z,100924.94
2022-11-05T20:52:40.424Z,100929.16
2022-11-05T20:57:41.958Z,100925.78
2022-11-05T21:02:43.577Z,100926.69
2022-11-05T21:07:45.228Z,100922.50
2022-11-05T21:12:47.250Z,100920.00
2022-11-05T21:17:50.321Z,100917.50
2022-11-05T21:22:51.755Z,100926.75
2022-11-05T21:27:53.251Z,100922.56
2022-11-05T21:32:54.685Z,100927.59
2022-11-05T21:37:56.283Z,100918.38
2022-11-05T21:42:57.807Z,100920.88
2022-11-05T21:47:59.521Z,100909.09
2022-11-05T21:53:19.283Z,100918.38
2022-11-05T21:58:39.849Z,100909.94
2022-11-05T22:03:41.350Z,100901.53
2022-11-05T22:08:42.836Z,100902.38
2022-11-05T22:13:44.343Z,100906.59
2022-11-05T22:18:45.834Z,100910.78
2022-11-05T22:23:47.312Z,100909.94
2022-11-05T22:28:48.833Z,100914.13
2022-11-05T22:33:50.508Z,100909.06
2022-11-05T22:38:52.091Z,100899.81
2022-11-05T22:43:53.601Z,100903.22
2022-11-05T22:48:58.682Z,100888.06
2022-11-05T22:54:00.750Z,100883.03
2022-11-05T22:59:03.340Z,100896.50
2022-11-05T23:04:04.913Z,100884.69
2022-11-05T23:09:31.465Z,100888.09
2022-11-05T23:14:33.245Z,100892.31
2022-11-05T23:19:53.152Z,100883.88
2022-11-05T23:24:54.667Z,100880.53
2022-11-05T23:30:00.441Z,100880.53
2022-11-05T23:35:02.020Z,100875.50
2022-11-05T23:40:06.003Z,100847.72
2022-11-05T23:45:26.991Z,100847.72
2022-11-05T23:50:33.103Z,100857.81
2022-11-05T23:55:38.012Z,100858.66
